Time;durP1;ratioP1;P1;durP2;ratioP2;P2;SDS_P1;SDS_P2;PMS_P1;PMS_P2;Temp;Humidity;BMP_temperature;BMP_pressure;BME280_temperature;BME280_humidity;BME280_pressure;Samples;Min_cycle;Max_cycle;Signal;HPM_P1;HPM_P2
2021/12/20 00:08:57;;;;;;;11.43;1.08;;;7.00;99.90;;;;;;20640994;28;20057;-44
2021/12/20 00:18:58;;;;;;;1.98;0.60;;;7.00;99.90;;;;;;20640360;28;20041;-44
2021/12/20 00:28:59;;;;;;;4.60;0.35;;;7.00;99.90;;;;;;20645557;28;20041;-44
2021/12/20 00:49:22;;;;;;;2.60;0.65;;;6.90;99.90;;;;;;20631924;28;20050;-44
2021/12/20 00:59:23;;;;;;;10.77;1.60;;;6.90;99.90;;;;;;20645647;28;20494;-44
2021/12/20 01:09:25;;;;;;;2.67;0.40;;;6.80;99.90;;;;;;20644005;28;20677;-43
2021/12/20 01:19:26;;;;;;;2.13;0.70;;;6.80;99.90;;;;;;20647937;28;20031;-44
2021/12/20 01:29:27;;;;;;;2.00;0.52;;;6.80;99.90;;;;;;20643839;28;20045;-44
2021/12/20 01:39:29;;;;;;;7.15;0.57;;;6.80;99.90;;;;;;20662251;28;20541;-43
2021/12/20 01:49:38;;;;;;;2.03;0.52;;;6.80;99.90;;;;;;20665642;28;20053;-43
2021/12/20 01:59:40;;;;;;;2.22;0.70;;;6.80;99.90;;;;;;20667137;28;20038;-43
2021/12/20 02:09:41;;;;;;;6.43;1.27;;;6.80;99.90;;;;;;20650062;28;22302;-44
2021/12/20 02:19:42;;;;;;;5.15;0.73;;;6.70;99.90;;;;;;20654019;28;20482;-43
2021/12/20 02:29:59;;;;;;;3.83;0.82;;;6.70;99.90;;;;;;20654364;28;20453;-44
2021/12/20 02:40:00;;;;;;;7.10;0.50;;;6.80;99.90;;;;;;20647064;28;20046;-43
2021/12/20 02:50:01;;;;;;;3.40;1.10;;;6.80;99.90;;;;;;20657428;28;20038;-43
2021/12/20 03:00:09;;;;;;;8.90;1.10;;;6.70;99.90;;;;;;20657691;28;20413;-43
2021/12/20 03:10:22;;;;;;;10.13;1.40;;;6.70;99.90;;;;;;20660419;28;20058;-44
2021/12/20 03:20:24;;;;;;;2.25;1.30;;;6.70;99.90;;;;;;20658248;28;20053;-43
2021/12/20 03:30:26;;;;;;;4.90;0.70;;;6.60;99.90;;;;;;20660789;28;20034;-44
2021/12/20 03:40:27;;;;;;;1.50;0.50;;;6.70;99.90;;;;;;20660041;28;20478;-43
2021/12/20 03:50:28;;;;;;;5.85;0.65;;;6.60;99.90;;;;;;20655434;28;20034;-44
2021/12/20 04:00:29;;;;;;;0.63;0.30;;;6.60;99.90;;;;;;20657613;28;20416;-43
2021/12/20 04:10:30;;;;;;;5.85;0.77;;;6.60;99.90;;;;;;20630711;28;20464;-43
2021/12/20 04:20:32;;;;;;;4.13;0.47;;;6.60;99.90;;;;;;20648363;28;20886;-43
2021/12/20 04:30:33;;;;;;;2.97;0.57;;;6.60;99.90;;;;;;20645673;28;20034;-43
2021/12/20 04:40:35;;;;;;;6.70;0.70;;;6.50;99.90;;;;;;20644010;28;20033;-43
2021/12/20 04:50:36;;;;;;;1.63;0.43;;;6.50;99.90;;;;;;20648781;28;20410;-43
2021/12/20 05:00:40;;;;;;;6.20;0.85;;;6.50;99.90;;;;;;20624155;28;20054;-44
2021/12/20 05:10:45;;;;;;;3.83;0.40;;;6.50;99.90;;;;;;20648850;28;20494;-43
2021/12/20 05:20:46;;;;;;;2.20;0.52;;;6.50;99.90;;;;;;20659736;28;20509;-43
2021/12/20 05:30:50;;;;;;;1.67;0.63;;;6.50;99.90;;;;;;20654094;28;20109;-43
2021/12/20 05:40:52;;;;;;;1.88;0.73;;;6.50;99.90;;;;;;20639910;28;20038;-44
2021/12/20 05:50:53;;;;;;;3.22;0.77;;;6.50;99.90;;;;;;20653436;28;20045;-43
2021/12/20 06:00:54;;;;;;;3.05;1.50;;;6.50;99.90;;;;;;20642231;28;20057;-43
2021/12/20 06:10:55;;;;;;;2.67;0.32;;;6.50;99.90;;;;;;20650713;28;20042;-43
2021/12/20 06:20:57;;;;;;;3.45;0.40;;;6.40;99.90;;;;;;20633487;28;20100;-44
2021/12/20 06:30:58;;;;;;;1.60;0.40;;;6.40;99.90;;;;;;20651384;28;20053;-44
2021/12/20 06:40:59;;;;;;;0.75;0.30;;;6.40;99.90;;;;;;20651403;28;20042;-43
2021/12/20 06:51:00;;;;;;;2.67;0.73;;;6.30;99.90;;;;;;20643703;28;20517;-43
2021/12/20 07:01:01;;;;;;;4.28;0.13;;;6.20;99.90;;;;;;20648220;28;20046;-43
2021/12/20 07:11:05;;;;;;;3.35;1.52;;;6.00;99.90;;;;;;20652071;28;20040;-43
2021/12/20 07:21:07;;;;;;;1.33;0.30;;;6.00;99.90;;;;;;20658915;28;20061;-43
2021/12/20 07:31:09;;;;;;;4.38;0.45;;;5.90;99.90;;;;;;20657421;28;20045;-44
2021/12/20 07:41:11;;;;;;;1.65;0.20;;;5.80;99.90;;;;;;20631358;28;20053;-43
2021/12/20 07:51:12;;;;;;;1.65;0.52;;;5.90;99.90;;;;;;20658048;28;20037;-43
2021/12/20 08:01:13;;;;;;;5.25;0.57;;;5.90;99.90;;;;;;20660695;28;20498;-43
2021/12/20 08:11:15;;;;;;;1.10;0.38;;;5.90;99.90;;;;;;20639486;28;20085;-43
2021/12/20 08:21:16;;;;;;;3.35;0.50;;;5.90;99.90;;;;;;20653446;28;20504;-43
2021/12/20 08:31:17;;;;;;;3.25;0.50;;;5.90;99.90;;;;;;20650327;28;20038;-44
2021/12/20 08:41:18;;;;;;;1.42;0.50;;;6.00;99.90;;;;;;20632019;28;20038;-43
2021/12/20 08:51:19;;;;;;;1.50;0.60;;;6.00;99.90;;;;;;20646157;28;20042;-43
2021/12/20 09:01:21;;;;;;;3.38;0.38;;;6.00;99.90;;;;;;20622119;28;20402;-43
2021/12/20 09:11:23;;;;;;;0.93;0.20;;;6.10;99.90;;;;;;20592684;28;20041;-43
2021/12/20 09:21:29;;;;;;;1.83;0.82;;;6.20;99.90;;;;;;20568062;28;20161;-43
2021/12/20 09:31:31;;;;;;;8.40;0.35;;;6.20;99.90;;;;;;20562138;28;20030;-43
2021/12/20 09:51:37;;;;;;;0.50;0.10;;;6.40;99.90;;;;;;20574755;28;20034;-43
2021/12/20 10:01:39;;;;;;;1.35;0.25;;;6.40;99.90;;;;;;20653261;28;20042;-43
2021/12/20 10:11:41;;;;;;;3.28;0.30;;;6.40;99.90;;;;;;20655814;28;20034;-43
2021/12/20 10:21:45;;;;;;;2.58;0.40;;;6.50;99.90;;;;;;20656434;28;20521;-43
2021/12/20 10:31:47;;;;;;;1.77;0.60;;;6.50;99.90;;;;;;20652250;28;20031;-44
2021/12/20 10:41:52;;;;;;;3.75;0.30;;;6.60;99.90;;;;;;20638966;28;20046;-43
2021/12/20 10:51:54;;;;;;;1.88;0.50;;;6.70;99.90;;;;;;20658300;28;20037;-43
2021/12/20 11:12:26;;;;;;;2.80;0.20;;;6.80;99.90;;;;;;20651981;28;20061;-43
2021/12/20 11:22:30;;;;;;;0.22;0.10;;;6.90;99.90;;;;;;20650142;28;20498;-43
2021/12/20 11:32:31;;;;;;;1.55;0.47;;;7.00;99.90;;;;;;20649911;28;20043;-43
2021/12/20 11:42:32;;;;;;;3.60;1.20;;;7.00;99.90;;;;;;20657823;28;20088;-43
2021/12/20 11:52:39;;;;;;;3.30;0.50;;;7.10;99.90;;;;;;20650922;28;20030;-43
2021/12/20 12:02:43;;;;;;;1.07;0.20;;;7.10;99.90;;;;;;20654232;28;20054;-43
2021/12/20 12:12:47;;;;;;;2.00;0.20;;;7.10;99.90;;;;;;20651046;28;20039;-43
2021/12/20 12:22:48;;;;;;;1.08;0.15;;;7.20;99.90;;;;;;20645519;28;20213;-43
2021/12/20 12:32:52;;;;;;;1.85;0.63;;;7.10;99.90;;;;;;20656071;28;20061;-43
2021/12/20 12:42:57;;;;;;;0.40;0.10;;;7.10;99.90;;;;;;20649748;28;20054;-43
2021/12/20 12:52:58;;;;;;;1.17;0.28;;;6.90;99.90;;;;;;20648778;28;20411;-43
2021/12/20 13:03:11;;;;;;;0.17;0.10;;;6.90;99.90;;;;;;20638272;28;20429;-43
2021/12/20 13:13:24;;;;;;;1.60;0.20;;;6.90;99.90;;;;;;20635574;28;20041;-43
2021/12/20 13:23:36;;;;;;;0.65;0.15;;;6.90;99.90;;;;;;20625838;28;20045;-43
2021/12/20 13:33:51;;;;;;;0.70;0.10;;;6.90;99.90;;;;;;20649219;28;20382;-43
2021/12/20 13:43:55;;;;;;;0.30;0.10;;;6.90;99.90;;;;;;20658175;28;20041;-43
2021/12/20 13:53:56;;;;;;;2.83;0.20;;;6.90;99.90;;;;;;20654567;28;20042;-43
2021/12/20 14:03:57;;;;;;;1.75;0.30;;;6.80;99.90;;;;;;20655989;28;20053;-43
2021/12/20 14:14:11;;;;;;;4.22;0.60;;;6.80;99.90;;;;;;20657516;28;20026;-43
2021/12/20 14:24:13;;;;;;;1.67;0.25;;;6.80;99.90;;;;;;20654919;28;20394;-43
2021/12/20 14:34:14;;;;;;;3.30;0.52;;;6.70;99.90;;;;;;20636732;28;20498;-43
2021/12/20 14:54:26;;;;;;;2.08;0.65;;;6.50;99.90;;;;;;20648358;28;20034;-43
2021/12/20 15:04:28;;;;;;;1.42;0.15;;;6.40;99.90;;;;;;20645521;28;20578;-43
2021/12/20 15:14:29;;;;;;;1.67;0.93;;;6.30;99.90;;;;;;20644829;28;20753;-43
2021/12/20 15:24:30;;;;;;;4.97;0.43;;;6.30;99.90;;;;;;20649699;28;20409;-44
2021/12/20 15:34:32;;;;;;;0.63;0.30;;;6.20;99.90;;;;;;20650623;28;20449;-43
2021/12/20 15:44:33;;;;;;;2.92;0.60;;;6.00;99.90;;;;;;20648978;28;20437;-43
2021/12/20 15:54:34;;;;;;;1.58;0.63;;;6.00;99.90;;;;;;20633715;28;20037;-43
2021/12/20 16:04:36;;;;;;;0.30;0.15;;;5.80;99.90;;;;;;20650228;28;20054;-43
2021/12/20 16:14:38;;;;;;;1.25;0.35;;;5.70;99.90;;;;;;20652028;28;20044;-43
2021/12/20 16:24:39;;;;;;;1.02;0.55;;;5.60;99.90;;;;;;20651089;28;20057;-44
2021/12/20 16:34:40;;;;;;;1.27;0.30;;;5.40;99.90;;;;;;20644472;28;20360;-43
2021/12/20 16:44:42;;;;;;;0.82;0.20;;;5.30;99.90;;;;;;20657706;28;20136;-46
2021/12/20 16:54:46;;;;;;;2.20;0.47;;;5.30;99.90;;;;;;20650286;28;20049;-43
2021/12/20 17:04:51;;;;;;;1.17;0.65;;;5.20;99.90;;;;;;20620966;28;20400;-43
2021/12/20 17:14:52;;;;;;;1.60;0.73;;;5.20;99.90;;;;;;20566022;28;21411;-43
2021/12/20 17:24:53;;;;;;;3.58;0.57;;;5.10;99.90;;;;;;20565985;28;20058;-43
2021/12/20 17:34:54;;;;;;;2.20;1.02;;;5.20;99.90;;;;;;20571979;28;20038;-43
2021/12/20 17:44:55;;;;;;;2.03;1.20;;;5.10;99.90;;;;;;20574408;28;20062;-43
2021/12/20 17:55:04;;;;;;;4.05;1.85;;;5.00;99.90;;;;;;20584940;28;20573;-43
2021/12/20 18:05:07;;;;;;;6.13;1.80;;;5.00;99.90;;;;;;20576424;28;20050;-43
2021/12/20 18:15:10;;;;;;;2.30;0.80;;;4.90;99.90;;;;;;20579786;28;20045;-43
2021/12/20 18:25:11;;;;;;;3.55;1.27;;;4.80;99.90;;;;;;20592329;28;20058;-43
2021/12/20 18:35:12;;;;;;;5.35;1.08;;;4.70;99.90;;;;;;20598263;28;20034;-43
2021/12/20 18:45:13;;;;;;;5.28;2.67;;;4.40;99.90;;;;;;20603889;28;20049;-43
2021/12/20 18:55:14;;;;;;;6.53;1.77;;;4.30;99.90;;;;;;20596633;28;20045;-43
2021/12/20 19:05:15;;;;;;;17.38;5.10;;;4.10;99.90;;;;;;20589924;28;20536;-43
2021/12/20 19:15:16;;;;;;;28.05;7.88;;;3.80;99.90;;;;;;20600731;28;20026;-43
2021/12/20 19:25:20;;;;;;;9.45;2.80;;;3.60;99.90;;;;;;20597440;28;20058;-43
2021/12/20 19:35:21;;;;;;;3.90;1.77;;;3.50;99.90;;;;;;20589102;28;20050;-43
2021/12/20 19:45:22;;;;;;;5.35;1.50;;;3.30;99.90;;;;;;20588134;28;20050;-44
2021/12/20 19:55:23;;;;;;;7.80;2.17;;;3.20;99.90;;;;;;20590205;28;20031;-43
2021/12/20 20:05:25;;;;;;;9.63;2.65;;;3.00;99.90;;;;;;20584743;28;22027;-43
2021/12/20 20:15:27;;;;;;;5.55;2.08;;;3.00;99.90;;;;;;20628980;28;20045;-43
2021/12/20 20:25:28;;;;;;;7.68;2.38;;;2.90;99.90;;;;;;20668543;28;20088;-43
2021/12/20 20:35:30;;;;;;;10.70;3.08;;;2.90;99.90;;;;;;20666159;28;20076;-43
2021/12/20 20:45:32;;;;;;;7.38;2.38;;;2.70;99.90;;;;;;20664016;28;20042;-44
2021/12/20 20:55:33;;;;;;;8.65;2.20;;;2.60;99.90;;;;;;20668290;28;20038;-43
2021/12/20 21:05:35;;;;;;;7.15;2.35;;;2.50;99.90;;;;;;20668668;28;20051;-43
2021/12/20 21:15:36;;;;;;;6.30;2.55;;;2.50;99.90;;;;;;20665981;28;20493;-43
2021/12/20 21:25:38;;;;;;;5.78;2.17;;;2.30;99.90;;;;;;20649536;28;20042;-43
2021/12/20 21:35:39;;;;;;;5.25;2.33;;;2.10;99.90;;;;;;20654165;28;20045;-43
2021/12/20 21:45:40;;;;;;;3.80;2.00;;;2.10;99.90;;;;;;20655692;28;20042;-43
2021/12/20 21:55:41;;;;;;;5.85;2.30;;;2.10;99.90;;;;;;20662714;28;20616;-43
2021/12/20 22:05:45;;;;;;;7.97;2.22;;;2.00;99.90;;;;;;20671464;28;20568;-43
2021/12/20 22:15:46;;;;;;;4.55;1.98;;;1.90;99.90;;;;;;20662940;28;20042;-42
2021/12/20 22:25:47;;;;;;;6.90;2.70;;;1.90;99.90;;;;;;20662899;28;20049;-43
2021/12/20 22:35:51;;;;;;;5.35;1.75;;;1.80;99.90;;;;;;20662915;28;20034;-43
2021/12/20 22:45:52;;;;;;;5.60;1.98;;;1.70;99.90;;;;;;20654713;28;20281;-43
2021/12/20 22:55:53;;;;;;;11.23;2.45;;;1.70;99.90;;;;;;20653697;28;20526;-43
2021/12/20 23:05:55;;;;;;;4.53;2.25;;;1.60;99.90;;;;;;20657909;28;20038;-43
2021/12/20 23:15:56;;;;;;;7.18;2.10;;;1.50;99.90;;;;;;20663446;28;20026;-43
2021/12/20 23:25:57;;;;;;;6.18;2.20;;;1.40;99.90;;;;;;20662454;28;20042;-43
2021/12/20 23:35:59;;;;;;;4.55;2.00;;;1.30;99.90;;;;;;20656617;28;20049;-43
2021/12/20 23:46:00;;;;;;;4.53;1.75;;;1.30;99.90;;;;;;20656550;28;20562;-42
2021/12/20 23:56:02;;;;;;;4.35;2.00;;;1.20;99.90;;;;;;20655285;28;20073;-45
